KABY/ABY METAR and TAF weather

Enter ICAO airport designator
Station Type Date Time Source
KABY METAR 2019/04/18 09:53 UTC NOAA

KABY 180953Z AUTO 15010KT 10SM CLR 18/16 A2995 RMK AO2 SLP141 T01780156


Station Type Date Time Source
KABY Decoded METAR 2019/04/18 09:53 UTC NOAA

ALBANY SOUTHWEST GEORGIA, GA, United States (KABY) 31-32N 084-12W 58M
Apr 18, 2019 - 05:53 AM EDT / 2019.04.18 0953 UTC
Wind: from the SSE (150 degrees) at 12 MPH (10 KT):0
Visibility: 10 mile(s):0
Sky conditions: clear
Temperature: 64.0 F (17.8 C)
Dew Point: 60.1 F (15.6 C)
Relative Humidity: 86%
Pressure (altimeter): 29.95 in. Hg (1014 hPa)
ob: KABY 180953Z AUTO 15010KT 10SM CLR 18/16 A2995 RMK AO2 SLP141 T01780156
cycle: 10

Station Type Date Time Source
KABY TAF 2019/04/18 08:58 UTC NOAA

TAF
AMD KABY 180757Z 1808/1906 VRB05KT P6SM BKN250 WS020/16030KT
FM181400 18013G20KT P6SM BKN050 BKN250

Example: see airport list